createdAt,value
2022-09-22T00:02:22.285Z,5.82
2022-09-22T00:04:53.579Z,4.18
2022-09-22T00:07:21.930Z,3.80
2022-09-22T00:09:53.167Z,2.17
2022-09-22T00:12:23.237Z,4.07
2022-09-22T00:14:51.810Z,3.25
2022-09-22T00:17:23.456Z,4.72
2022-09-22T00:19:55.767Z,3.00
2022-09-22T00:22:26.943Z,3.95
2022-09-22T00:24:55.560Z,3.22
2022-09-22T00:27:29.904Z,2.75
2022-09-22T00:29:58.281Z,3.72
2022-09-22T00:32:29.564Z,4.78
2022-09-22T00:34:59.359Z,3.90
2022-09-22T00:37:27.601Z,5.82
2022-09-22T00:39:55.992Z,3.75
2022-09-22T00:42:27.782Z,3.70
2022-09-22T00:44:56.180Z,3.10
2022-09-22T00:47:34.598Z,3.28
2022-09-22T00:50:10.749Z,4.57
2022-09-22T00:52:43.140Z,4.95
2022-09-22T00:55:17.586Z,5.05
2022-09-22T00:57:48.140Z,3.85
2022-09-22T01:00:16.969Z,5.32
2022-09-22T01:02:49.673Z,4.25
2022-09-22T01:05:20.230Z,3.80
2022-09-22T01:07:49.956Z,3.75
2022-09-22T01:10:21.133Z,3.58
2022-09-22T01:13:02.054Z,4.13
2022-09-22T01:15:38.333Z,7.70
2022-09-22T01:18:18.413Z,4.88
2022-09-22T01:21:20.509Z,4.95
2022-09-22T01:24:14.173Z,4.82
2022-09-22T01:27:02.137Z,3.78
2022-09-22T01:29:51.315Z,5.72
2022-09-22T01:32:28.653Z,8.18
2022-09-22T01:35:00.335Z,5.03
2022-09-22T01:37:37.930Z,7.30
2022-09-22T01:40:11.648Z,5.45
2022-09-22T01:42:47.375Z,4.70
2022-09-22T01:45:18.957Z,6.22
2022-09-22T01:47:52.290Z,4.53
2022-09-22T01:50:25.428Z,6.75
2022-09-22T01:52:57.290Z,5.18
2022-09-22T01:55:30.164Z,3.78
2022-09-22T01:58:04.990Z,8.40
2022-09-22T02:00:33.722Z,4.85
2022-09-22T02:03:08.010Z,6.25
2022-09-22T02:05:40.381Z,5.10
2022-09-22T02:08:21.786Z,4.95
2022-09-22T02:10:50.369Z,5.57
2022-09-22T02:13:19.597Z,4.05
2022-09-22T02:16:02.820Z,5.05
2022-09-22T02:18:36.421Z,5.80
2022-09-22T02:21:05.816Z,6.03
2022-09-22T02:23:38.039Z,5.38
2022-09-22T02:26:07.882Z,4.90
2022-09-22T02:28:39.213Z,4.97
2022-09-22T02:31:25.342Z,5.30
2022-09-22T02:33:55.569Z,4.50
2022-09-22T02:36:50.756Z,4.35
2022-09-22T02:39:25.557Z,5.97
2022-09-22T02:42:13.587Z,6.07
2022-09-22T02:44:49.289Z,5.25
2022-09-22T02:47:29.758Z,5.80
2022-09-22T02:50:00.541Z,4.65
2022-09-22T02:52:28.751Z,7.53
2022-09-22T02:54:58.687Z,4.78
2022-09-22T02:57:26.841Z,5.22
2022-09-22T02:59:57.640Z,3.88
2022-09-22T03:02:27.418Z,4.68
2022-09-22T03:05:06.368Z,4.30
2022-09-22T03:07:34.560Z,6.22
2022-09-22T03:10:02.701Z,4.82
2022-09-22T03:12:31.183Z,4.00
2022-09-22T03:14:59.640Z,5.45
2022-09-22T03:17:27.957Z,5.82
2022-09-22T03:19:59.512Z,4.40
2022-09-22T03:22:29.947Z,4.60
2022-09-22T03:25:00.023Z,4.30
2022-09-22T03:27:28.396Z,5.00
2022-09-22T03:29:59.314Z,6.47
2022-09-22T03:32:27.668Z,5.07
2022-09-22T03:34:55.729Z,7.25
2022-09-22T03:37:25.783Z,7.43
2022-09-22T03:39:54.072Z,5.13
2022-09-22T03:42:22.297Z,5.13
2022-09-22T03:44:50.438Z,6.35
2022-09-22T03:47:19.489Z,7.88
2022-09-22T03:49:47.814Z,4.63
2022-09-22T03:52:15.977Z,4.68
2022-09-22T03:54:45.460Z,6.70
2022-09-22T03:57:13.819Z,5.55
2022-09-22T03:59:42.099Z,5.72
2022-09-22T04:02:10.819Z,6.32
2022-09-22T04:04:39.077Z,6.63
2022-09-22T04:07:07.721Z,6.95
2022-09-22T04:09:36.325Z,6.18
2022-09-22T04:12:06.606Z,6.90
2022-09-22T04:14:34.946Z,5.47
2022-09-22T04:17:05.363Z,5.65
2022-09-22T04:19:35.902Z,6.00
2022-09-22T04:22:04.986Z,5.75
2022-09-22T04:24:33.183Z,5.80
2022-09-22T04:27:19.018Z,6.40
2022-09-22T04:29:54.378Z,5.30
2022-09-22T04:32:22.559Z,5.10
2022-09-22T04:34:51.143Z,4.90
2022-09-22T04:37:23.298Z,5.45
2022-09-22T04:39:56.539Z,4.75
2022-09-22T04:42:39.591Z,6.55
2022-09-22T04:45:21.208Z,5.35
2022-09-22T04:47:55.399Z,8.38
2022-09-22T04:50:24.659Z,7.15
2022-09-22T04:53:02.047Z,6.38
2022-09-22T04:55:32.353Z,10.93
2022-09-22T04:58:17.847Z,9.50
2022-09-22T05:04:12.467Z,6.65
2022-09-22T05:07:40.156Z,7.53
2022-09-22T05:10:16.026Z,6.93
2022-09-22T05:13:15.723Z,4.53
2022-09-22T05:16:30.877Z,5.72
2022-09-22T05:19:23.958Z,8.75
2022-09-22T05:21:58.217Z,6.20
2022-09-22T05:24:26.203Z,7.50
2022-09-22T05:27:03.454Z,5.60
2022-09-22T05:30:00.487Z,5.68
2022-09-22T05:32:34.153Z,4.07
2022-09-22T05:35:04.468Z,4.88
2022-09-22T05:37:35.964Z,5.05
2022-09-22T05:40:07.215Z,3.67
2022-09-22T05:42:36.033Z,5.30
2022-09-22T05:45:04.068Z,3.65
2022-09-22T05:47:35.044Z,3.63
2022-09-22T05:50:03.212Z,5.00
2022-09-22T05:52:31.187Z,4.85
2022-09-22T05:54:59.379Z,6.75
2022-09-22T05:57:27.709Z,11.52
2022-09-22T05:59:56.358Z,10.05
2022-09-22T06:02:26.399Z,8.55
2022-09-22T06:05:46.764Z,11.38
2022-09-22T06:08:16.213Z,11.90
2022-09-22T06:10:45.387Z,9.80
2022-09-22T06:13:13.666Z,14.68
2022-09-22T06:15:47.738Z,16.70
2022-09-22T06:18:23.449Z,19.45
2022-09-22T06:20:53.101Z,23.13
2022-09-22T06:23:22.844Z,15.77
2022-09-22T06:25:52.223Z,16.83
2022-09-22T06:28:20.262Z,21.02
2022-09-22T06:30:49.683Z,18.73
2022-09-22T06:33:17.779Z,12.00
2022-09-22T06:35:46.269Z,12.13
2022-09-22T06:38:16.810Z,10.80
2022-09-22T06:40:46.398Z,13.05
2022-09-22T06:43:22.554Z,9.00
2022-09-22T06:45:52.167Z,10.98
2022-09-22T06:48:22.364Z,9.40
2022-09-22T06:50:52.375Z,11.82
2022-09-22T06:53:24.453Z,7.80
2022-09-22T06:55:56.255Z,9.60
2022-09-22T06:58:28.074Z,8.45
2022-09-22T07:01:10.054Z,8.60
2022-09-22T07:03:42.643Z,9.45
2022-09-22T07:06:14.806Z,8.93
2022-09-22T07:08:46.111Z,4.80
2022-09-22T07:11:17.827Z,7.20
2022-09-22T07:13:46.699Z,6.05
2022-09-22T07:16:17.617Z,5.35
2022-09-22T07:18:50.284Z,4.55
2022-09-22T07:21:27.319Z,6.88
2022-09-22T07:23:58.926Z,5.65
2022-09-22T07:26:32.115Z,6.03
2022-09-22T07:29:04.667Z,5.53
2022-09-22T07:31:34.862Z,5.65
2022-09-22T07:34:03.195Z,5.97
2022-09-22T07:36:36.984Z,6.32
2022-09-22T07:39:07.604Z,7.35
2022-09-22T07:41:41.797Z,8.07
2022-09-22T07:44:28.670Z,8.27
2022-09-22T07:46:56.919Z,6.45
2022-09-22T07:49:26.871Z,6.60
2022-09-22T07:51:57.896Z,5.90
2022-09-22T07:54:27.975Z,7.43
2022-09-22T07:56:59.323Z,5.38
2022-09-22T07:59:27.988Z,6.22
2022-09-22T08:01:56.173Z,5.97
2022-09-22T08:04:27.568Z,7.47
2022-09-22T08:06:56.494Z,7.88
2022-09-22T08:09:24.865Z,6.40
2022-09-22T08:11:53.484Z,5.50
2022-09-22T08:14:24.143Z,8.13
2022-09-22T08:16:53.489Z,4.65
2022-09-22T08:19:24.487Z,4.63
2022-09-22T08:21:54.192Z,5.38
2022-09-22T08:24:23.677Z,6.03
2022-09-22T08:26:53.814Z,5.88
2022-09-22T08:29:24.423Z,3.92
2022-09-22T08:31:52.602Z,4.25
2022-09-22T08:34:22.554Z,7.80
2022-09-22T08:36:50.847Z,4.85
2022-09-22T08:39:19.532Z,6.50
2022-09-22T08:42:05.774Z,6.43
2022-09-22T08:44:38.714Z,8.73
2022-09-22T08:47:07.093Z,6.45
2022-09-22T08:50:01.496Z,5.38
2022-09-22T08:52:38.985Z,4.97
2022-09-22T08:55:13.333Z,6.88
2022-09-22T08:58:00.202Z,7.90
2022-09-22T09:00:33.957Z,3.45
2022-09-22T09:03:17.727Z,4.53
2022-09-22T09:06:04.351Z,6.13
2022-09-22T09:09:07.771Z,5.28
2022-09-22T09:11:59.091Z,2.70
2022-09-22T09:14:50.096Z,6.03
2022-09-22T09:17:24.009Z,2.22
2022-09-22T09:19:55.692Z,3.08
2022-09-22T09:22:28.348Z,1.48
2022-09-22T09:27:55.341Z,1.83
2022-09-22T09:30:23.792Z,3.47
2022-09-22T09:32:56.380Z,1.45
2022-09-22T09:35:30.868Z,1.63
2022-09-22T09:38:01.250Z,1.00
2022-09-22T09:40:29.866Z,1.30
2022-09-22T09:43:03.255Z,1.95
2022-09-22T09:45:38.024Z,2.05
2022-09-22T09:48:21.028Z,2.10
2022-09-22T09:50:50.778Z,4.13
2022-09-22T09:53:31.350Z,1.10
2022-09-22T09:55:59.835Z,1.10
2022-09-22T09:58:45.619Z,1.83
2022-09-22T10:01:15.305Z,3.10
2022-09-22T10:03:54.748Z,1.90
2022-09-22T10:06:26.548Z,3.17
2022-09-22T10:08:55.006Z,3.72
2022-09-22T10:11:31.555Z,1.80
2022-09-22T10:14:09.604Z,1.40
2022-09-22T10:16:37.803Z,2.08
2022-09-22T10:19:22.383Z,2.30
2022-09-22T10:21:50.631Z,1.60
2022-09-22T10:24:33.910Z,3.42
2022-09-22T10:27:05.208Z,1.73
2022-09-22T10:29:42.244Z,3.05
2022-09-22T10:32:17.576Z,2.20
2022-09-22T10:34:49.185Z,1.92
2022-09-22T10:37:18.896Z,1.73
2022-09-22T10:39:52.052Z,1.10
2022-09-22T10:42:28.681Z,1.08
2022-09-22T10:45:02.570Z,1.80
2022-09-22T10:47:40.755Z,1.50
2022-09-22T10:50:32.761Z,1.55
2022-09-22T10:53:14.597Z,1.02
2022-09-22T10:55:54.137Z,3.45
2022-09-22T10:58:34.610Z,1.13
2022-09-22T11:01:18.760Z,2.45
2022-09-22T11:04:16.176Z,1.77
2022-09-22T11:07:14.522Z,2.28
2022-09-22T11:10:04.091Z,1.42
2022-09-22T11:12:44.396Z,1.58
2022-09-22T11:15:26.338Z,1.42
2022-09-22T11:18:14.654Z,1.38
2022-09-22T11:20:45.339Z,2.17
2022-09-22T11:23:39.680Z,1.95
2022-09-22T11:26:31.277Z,1.77
2022-09-22T11:29:33.523Z,1.10
2022-09-22T11:32:12.804Z,1.90
2022-09-22T11:35:15.830Z,1.25
2022-09-22T11:37:55.079Z,1.45
2022-09-22T11:40:48.671Z,3.38
2022-09-22T11:43:44.058Z,2.83
2022-09-22T11:46:18.008Z,1.05
2022-09-22T11:48:58.916Z,1.27
2022-09-22T11:51:49.210Z,1.52
2022-09-22T11:54:43.765Z,1.10
2022-09-22T11:57:19.848Z,1.92
2022-09-22T11:59:54.907Z,2.13
2022-09-22T12:02:28.247Z,1.10
2022-09-22T12:05:00.985Z,1.20
2022-09-22T12:07:32.805Z,2.95
2022-09-22T12:10:07.816Z,3.88
2022-09-22T12:12:39.386Z,2.17
2022-09-22T12:15:24.521Z,3.15
2022-09-22T12:18:01.148Z,1.33
2022-09-22T12:20:41.426Z,1.30
2022-09-22T12:23:25.075Z,1.65
2022-09-22T12:25:55.425Z,1.80
2022-09-22T12:28:28.049Z,2.95
2022-09-22T12:31:06.207Z,2.15
2022-09-22T12:33:36.222Z,1.15
2022-09-22T12:36:06.869Z,1.33
2022-09-22T12:38:35.650Z,2.33
2022-09-22T12:41:04.733Z,3.58
2022-09-22T12:43:38.565Z,1.48
2022-09-22T12:46:23.035Z,1.75
2022-09-22T12:48:51.237Z,2.13
2022-09-22T12:51:32.456Z,1.60
2022-09-22T12:54:32.871Z,1.27
2022-09-22T12:57:02.332Z,3.70
2022-09-22T13:00:23.040Z,2.60
2022-09-22T13:02:51.736Z,1.67
2022-09-22T13:05:47.126Z,1.88
2022-09-22T13:08:28.264Z,3.50
2022-09-22T13:10:59.225Z,3.92
2022-09-22T13:13:40.530Z,1.63
2022-09-22T13:16:39.038Z,2.28
2022-09-22T13:19:14.895Z,4.00
2022-09-22T13:21:43.090Z,2.42
2022-09-22T13:24:27.679Z,3.25
2022-09-22T13:27:10.514Z,1.60
2022-09-22T13:29:40.893Z,3.80
2022-09-22T13:32:26.916Z,2.38
2022-09-22T13:34:55.599Z,4.10
2022-09-22T13:37:25.473Z,1.20
2022-09-22T13:39:58.328Z,1.80
2022-09-22T13:42:32.834Z,1.33
2022-09-22T13:45:04.064Z,5.10
2022-09-22T13:47:35.366Z,8.18
2022-09-22T13:50:07.843Z,23.08
2022-09-22T13:52:39.466Z,4.03
2022-09-22T13:55:11.257Z,20.75
2022-09-22T13:57:44.375Z,12.70
2022-09-22T14:00:24.561Z,4.10
2022-09-22T14:03:00.155Z,1.70
2022-09-22T14:05:30.900Z,4.78
2022-09-22T14:08:11.986Z,1.75
2022-09-22T14:10:44.576Z,2.53
2022-09-22T14:13:38.408Z,4.40
2022-09-22T14:16:22.361Z,3.38
2022-09-22T14:19:00.514Z,2.95
2022-09-22T14:21:28.981Z,1.95
2022-09-22T14:23:58.802Z,1.98
2022-09-22T14:26:35.986Z,4.60
2022-09-22T14:29:16.516Z,2.35
2022-09-22T14:31:48.216Z,4.18
2022-09-22T14:34:24.573Z,3.15
2022-09-22T14:36:56.438Z,2.75
2022-09-22T14:39:34.298Z,2.60
2022-09-22T14:42:14.164Z,1.83
2022-09-22T14:44:49.644Z,3.72
2022-09-22T14:47:25.724Z,5.05
2022-09-22T14:50:18.811Z,2.90
2022-09-22T14:52:56.436Z,2.33
2022-09-22T14:55:34.268Z,4.43
2022-09-22T14:58:06.414Z,2.25
2022-09-22T15:00:54.747Z,2.40
2022-09-22T15:03:29.121Z,1.85
2022-09-22T15:06:08.255Z,3.08
2022-09-22T15:08:37.459Z,4.55
2022-09-22T15:11:05.891Z,1.85
2022-09-22T15:13:45.408Z,2.38
2022-09-22T15:16:39.864Z,2.58
2022-09-22T15:19:13.066Z,4.07
2022-09-22T15:21:46.272Z,3.30
2022-09-22T15:24:15.715Z,3.92
2022-09-22T15:26:44.244Z,3.53
2022-09-22T15:29:14.642Z,2.40
2022-09-22T15:31:42.872Z,1.95
2022-09-22T15:34:12.793Z,13.02
2022-09-22T15:36:53.037Z,4.72
2022-09-22T15:39:22.872Z,3.20
2022-09-22T15:41:51.189Z,4.50
2022-09-22T15:44:19.680Z,7.93
2022-09-22T15:46:51.363Z,4.75
2022-09-22T15:49:24.820Z,3.13
2022-09-22T15:51:56.038Z,2.95
2022-09-22T15:54:26.134Z,2.25
2022-09-22T15:56:56.789Z,21.73
2022-09-22T15:59:28.263Z,51.75
2022-09-22T16:01:57.273Z,21.50
2022-09-22T16:04:30.058Z,8.80
2022-09-22T16:07:04.649Z,8.65
2022-09-22T16:09:33.046Z,2.45
2022-09-22T16:12:01.404Z,3.75
2022-09-22T16:14:29.455Z,2.28
2022-09-22T16:16:57.493Z,3.15
2022-09-22T16:19:27.623Z,2.00
2022-09-22T16:21:55.873Z,7.63
2022-09-22T16:24:28.477Z,16.67
2022-09-22T16:26:56.852Z,17.95
2022-09-22T16:29:25.220Z,39.75
2022-09-22T16:31:53.752Z,16.40
2022-09-22T16:34:23.994Z,7.68
2022-09-22T16:36:52.291Z,5.82
2022-09-22T16:39:20.413Z,4.38
2022-09-22T16:41:49.852Z,2.50
2022-09-22T16:44:21.986Z,4.10
2022-09-22T16:46:50.144Z,3.67
2022-09-22T16:49:20.305Z,1.77
2022-09-22T16:51:50.425Z,1.88
2022-09-22T16:54:19.837Z,5.28
2022-09-22T16:56:50.994Z,2.35
2022-09-22T16:59:21.404Z,1.88
2022-09-22T17:01:50.454Z,2.67
2022-09-22T17:04:19.786Z,3.15
2022-09-22T17:06:48.795Z,2.67
2022-09-22T17:09:17.751Z,2.65
2022-09-22T17:11:47.888Z,2.35
2022-09-22T17:14:18.536Z,5.20
2022-09-22T17:16:49.730Z,3.88
2022-09-22T17:19:19.661Z,4.07
2022-09-22T17:21:49.437Z,2.65
2022-09-22T17:24:17.624Z,2.80
2022-09-22T17:26:47.716Z,3.88
2022-09-22T17:29:18.293Z,3.33
2022-09-22T17:31:48.037Z,4.00
2022-09-22T17:34:16.871Z,8.10
2022-09-22T17:36:45.215Z,3.10
2022-09-22T17:39:13.501Z,3.40
2022-09-22T17:41:50.392Z,4.90
2022-09-22T17:44:21.373Z,4.90
2022-09-22T17:47:08.179Z,4.18
2022-09-22T17:49:54.045Z,4.60
2022-09-22T17:52:39.431Z,4.63
2022-09-22T17:55:14.142Z,4.35
2022-09-22T17:57:43.661Z,7.18
2022-09-22T18:00:16.358Z,4.78
2022-09-22T18:02:45.103Z,4.05
2022-09-22T18:05:17.264Z,3.55
2022-09-22T18:07:45.382Z,4.07
2022-09-22T18:10:15.116Z,4.07
2022-09-22T18:12:43.658Z,6.50
2022-09-22T18:15:15.152Z,6.20
2022-09-22T18:17:44.543Z,5.50
2022-09-22T18:20:14.253Z,3.83
2022-09-22T18:22:48.118Z,4.35
2022-09-22T18:25:19.249Z,4.88
2022-09-22T18:27:53.647Z,7.18
2022-09-22T18:30:23.219Z,6.60
2022-09-22T18:32:51.761Z,4.88
2022-09-22T18:35:20.088Z,3.60
2022-09-22T18:37:48.086Z,3.95
2022-09-22T18:40:17.136Z,5.90
2022-09-22T18:43:31.867Z,5.85
2022-09-22T18:46:06.532Z,3.72
2022-09-22T18:48:34.607Z,4.88
2022-09-22T18:51:05.636Z,5.63
2022-09-22T18:53:33.889Z,4.57
2022-09-22T18:56:10.416Z,3.80
2022-09-22T18:58:39.000Z,8.80
2022-09-22T19:04:20.454Z,3.75
2022-09-22T19:07:36.638Z,3.92
2022-09-22T19:13:16.200Z,5.55
2022-09-22T19:16:18.358Z,2.60
2022-09-22T19:18:50.379Z,3.65
2022-09-22T19:21:18.438Z,3.80
2022-09-22T19:23:46.587Z,4.95
2022-09-22T19:26:25.387Z,4.38
2022-09-22T19:28:53.534Z,2.90
2022-09-22T19:31:21.690Z,3.85
2022-09-22T19:34:02.613Z,2.47
2022-09-22T19:36:39.554Z,2.88
2022-09-22T19:39:23.204Z,3.15
2022-09-22T19:41:53.587Z,3.58
2022-09-22T19:44:26.316Z,4.03
2022-09-22T19:46:54.691Z,5.93
2022-09-22T19:49:26.546Z,2.20
2022-09-22T19:51:55.001Z,7.57
2022-09-22T19:54:23.078Z,3.95
2022-09-22T19:56:52.985Z,2.20
2022-09-22T19:59:23.835Z,2.53
2022-09-22T20:01:52.102Z,4.38
2022-09-22T20:04:25.327Z,3.72
2022-09-22T20:06:53.451Z,3.60
2022-09-22T20:09:21.754Z,2.90
2022-09-22T20:11:53.278Z,2.63
2022-09-22T20:14:30.008Z,5.32
2022-09-22T20:17:02.062Z,4.82
2022-09-22T20:19:35.493Z,2.10
2022-09-22T20:22:28.328Z,2.95
2022-09-22T20:25:24.839Z,3.13
2022-09-22T20:27:54.168Z,5.65
2022-09-22T20:31:10.910Z,4.03
2022-09-22T20:33:43.302Z,3.00
2022-09-22T20:36:37.141Z,3.38
2022-09-22T20:39:21.640Z,4.20
2022-09-22T20:41:49.646Z,2.92
2022-09-22T20:44:23.796Z,5.53
2022-09-22T20:46:52.109Z,2.50
2022-09-22T20:49:20.483Z,5.78
2022-09-22T20:51:50.232Z,2.33
2022-09-22T20:54:18.379Z,2.95
2022-09-22T20:56:46.409Z,3.55
2022-09-22T20:59:14.751Z,3.15
2022-09-22T21:01:42.966Z,2.90
2022-09-22T21:04:15.578Z,2.40
2022-09-22T21:06:44.262Z,6.05
2022-09-22T21:09:32.866Z,3.85
2022-09-22T21:12:05.683Z,4.10
2022-09-22T21:14:34.086Z,5.25
2022-09-22T21:17:06.217Z,4.55
2022-09-22T21:19:34.738Z,3.38
2022-09-22T21:22:02.763Z,3.47
2022-09-22T21:24:34.189Z,4.57
2022-09-22T21:27:02.471Z,2.92
2022-09-22T21:29:30.636Z,4.10
2022-09-22T21:31:59.699Z,2.50
2022-09-22T21:34:27.786Z,3.03
2022-09-22T21:36:55.754Z,3.80
2022-09-22T21:39:23.945Z,3.38
2022-09-22T21:41:53.428Z,3.53
2022-09-22T21:44:21.430Z,2.40
2022-09-22T21:46:50.070Z,2.40
2022-09-22T21:49:18.228Z,3.22
2022-09-22T21:51:47.235Z,3.25
2022-09-22T21:54:17.768Z,2.42
2022-09-22T21:56:46.429Z,3.00
2022-09-22T21:59:16.679Z,3.35
2022-09-22T22:01:45.861Z,3.85
2022-09-22T22:04:15.297Z,2.88
2022-09-22T22:06:44.811Z,5.05
2022-09-22T22:09:15.227Z,2.38
2022-09-22T22:11:45.314Z,3.33
2022-09-22T22:14:16.313Z,2.95
2022-09-22T22:16:56.067Z,3.90
2022-09-22T22:19:26.902Z,2.85
2022-09-22T22:21:55.874Z,6.60
2022-09-22T22:24:31.314Z,3.53
2022-09-22T22:27:01.280Z,4.95
2022-09-22T22:29:31.915Z,2.85
2022-09-22T22:32:01.040Z,4.13
2022-09-22T22:34:29.294Z,2.53
2022-09-22T22:36:59.190Z,2.83
2022-09-22T22:39:27.482Z,3.22
2022-09-22T22:41:55.624Z,1.83
2022-09-22T22:44:23.951Z,2.78
2022-09-22T22:46:53.396Z,4.03
2022-09-22T22:49:21.554Z,2.50
2022-09-22T22:51:52.020Z,2.40
2022-09-22T22:54:19.996Z,2.90
2022-09-22T22:56:51.218Z,4.25
2022-09-22T22:59:19.750Z,2.42
2022-09-22T23:01:47.882Z,2.00
2022-09-22T23:04:17.721Z,3.10
2022-09-22T23:06:48.498Z,3.40
2022-09-22T23:09:18.185Z,2.70
2022-09-22T23:11:47.583Z,2.10
2022-09-22T23:14:16.386Z,3.78
2022-09-22T23:16:46.901Z,4.15
2022-09-22T23:19:18.757Z,2.58
2022-09-22T23:21:47.487Z,3.72
2022-09-22T23:24:18.824Z,2.70
2022-09-22T23:26:47.425Z,2.70
2022-09-22T23:29:15.871Z,3.35
2022-09-22T23:31:43.918Z,2.20
2022-09-22T23:34:11.903Z,2.65
2022-09-22T23:36:41.295Z,3.13
2022-09-22T23:39:11.983Z,3.47
2022-09-22T23:41:39.997Z,3.80
2022-09-22T23:44:08.389Z,3.78
2022-09-22T23:46:38.256Z,5.82
2022-09-22T23:49:07.307Z,2.42
2022-09-22T23:51:35.310Z,2.30
2022-09-22T23:54:08.775Z,2.58
2022-09-22T23:56:37.194Z,3.78
2022-09-22T23:59:05.482Z,3.03
